MMTO/TLC METAR and TAF weather

Enter ICAO airport designator
Station Type Date Time Source
MMTO METAR 2021/09/23 23:48 UTC NOAA

MMTO 232348Z 13004KT 7SM SCT015CB BKN070 BKN200 17/11 A3032 RMK SLP134 52001 962 8/332 HZY


Station Type Date Time Source
MMTO Decoded METAR 2021/09/23 23:48 UTC NOAA

Toluca / Jose Maria , Mexico (MMTO) 19-21N 099-34W
Sep 23, 2021 - 07:48 PM EDT / 2021.09.23 2348 UTC
Wind: from the SE (130 degrees) at 5 MPH (4 KT):0
Visibility: 7 mile(s):0
Sky conditions: mostly cloudy
Weather: Cumulonimbus clouds observed
Temperature: 62 F (17 C)
Dew Point: 51 F (11 C)
Relative Humidity: 67%
Pressure (altimeter): 30.32 in. Hg (1026 hPa)
Pressure tendency: 0.00 inches (0.1 hPa) higher than three hours ago
ob: MMTO 232348Z 13004KT 7SM SCT015CB BKN070 BKN200 17/11 A3032 RMK SLP134 52001 962 8/332 HZY
cycle: 0

Station Type Date Time Source
MMTO TAF 2021/09/23 18:58 UTC NOAA

TAF COR MMTO 231951Z 2318/2424 04010KT P6SM SCT015 BKN200 TX20/2320Z TN06/2412Z
FM232000 02010KT P6SM BKN015
TEMPO 2321/2401 5SM TSRA BKN015CB
FM240300 00000KT 5SM HZ BKN015
TEMPO 2412/2416 1SM BR BKN005
FM241700 00000KT 5SM HZ SCT015 PROB40 2421/2424 5SM TSRA BKN010CB

Example: see airport list